Time;durP1;ratioP1;P1;durP2;ratioP2;P2;SDS_P1;SDS_P2;PMS_P1;PMS_P2;Temp;Humidity;BMP_temperature;BMP_pressure;BME280_temperature;BME280_humidity;BME280_pressure;Samples;Min_cycle;Max_cycle;Signal;HPM_P1;HPM_P2
2022/08/08 00:01:42;;;;;;;1.73;0.60;;;16.20;73.00;;;16.16;49.61;97589.22;4958073;28;20229;-42
2022/08/08 00:04:48;;;;;;;0.93;0.70;;;16.20;73.60;;;16.08;49.48;97572.84;4995643;28;20044;-43
2022/08/08 00:07:27;;;;;;;1.10;0.70;;;16.20;73.50;;;16.09;49.75;97582.53;4978906;28;20497;-43
2022/08/08 00:10:16;;;;;;;0.60;0.50;;;16.20;73.80;;;16.08;50.59;97585.28;5000048;28;20157;-42
2022/08/08 00:12:52;;;;;;;0.50;0.50;;;16.20;74.70;;;16.05;49.58;97586.31;4990707;28;20049;-41
2022/08/08 00:15:26;;;;;;;0.90;0.70;;;16.20;73.90;;;16.04;51.01;97592.56;4975803;28;20493;-42
2022/08/08 00:18:27;;;;;;;1.05;0.70;;;16.20;74.70;;;15.96;54.59;97594.81;4989673;28;20152;-44
2022/08/08 00:20:57;;;;;;;1.95;0.80;;;16.20;77.10;;;15.85;56.23;97587.44;4995792;28;20062;-42
2022/08/08 00:23:35;;;;;;;0.70;0.70;;;16.00;79.30;;;15.75;56.02;97589.72;4973836;28;20038;-43
2022/08/08 00:26:03;;;;;;;2.55;0.70;;;16.00;79.10;;;15.65;56.03;97592.00;4997080;28;20021;-45
2022/08/08 00:28:36;;;;;;;1.08;0.80;;;15.80;79.00;;;15.55;54.33;97600.56;4976349;28;20030;-41
2022/08/08 00:31:13;;;;;;;0.70;0.70;;;15.80;77.50;;;15.52;54.50;97592.75;4979468;28;20033;-43
2022/08/08 00:37:11;;;;;;;0.95;0.70;;;15.70;78.00;;;15.38;55.48;97589.03;4975933;28;20102;-42
2022/08/08 00:40:12;;;;;;;2.95;0.60;;;15.60;78.70;;;15.32;55.62;97591.16;4987656;28;20164;-42
2022/08/08 00:43:05;;;;;;;0.70;0.68;;;15.50;78.90;;;15.27;55.60;97594.03;4985113;28;20084;-44
2022/08/08 00:46:08;;;;;;;1.52;0.75;;;15.40;79.10;;;15.26;55.80;97600.31;4988110;28;20120;-41
2022/08/08 00:48:49;;;;;;;1.10;0.65;;;15.40;79.40;;;15.27;54.96;97594.94;4985797;28;20045;-44
2022/08/08 00:51:33;;;;;;;1.77;0.70;;;15.40;79.40;;;15.30;54.11;97603.69;4985593;28;20030;-44
2022/08/08 00:54:41;;;;;;;1.17;0.65;;;15.40;78.10;;;15.30;53.66;97599.22;4983645;28;20060;-43
2022/08/08 00:58:21;;;;;;;1.30;0.80;;;15.40;77.70;;;15.35;53.46;97605.16;4979176;28;20125;-42
2022/08/08 01:01:18;;;;;;;1.15;0.70;;;15.50;77.60;;;15.36;53.37;97603.34;4992681;28;20030;-42
2022/08/08 01:04:24;;;;;;;0.60;0.60;;;15.50;77.40;;;15.34;53.29;97608.72;4989405;28;20041;-42
2022/08/08 01:07:23;;;;;;;1.42;0.80;;;15.40;77.50;;;15.30;54.42;97609.84;4992746;28;20033;-42
2022/08/08 01:10:33;;;;;;;0.95;0.70;;;15.50;78.40;;;15.28;54.50;97609.91;4996591;28;20033;-43
2022/08/08 01:13:53;;;;;;;0.80;0.80;;;15.40;78.40;;;15.25;54.79;97606.56;4989651;28;20072;-42
2022/08/08 01:16:44;;;;;;;0.68;0.63;;;15.40;78.60;;;15.20;54.72;97609.47;4973120;28;20630;-41
2022/08/08 01:20:02;;;;;;;0.88;0.50;;;15.30;78.70;;;15.18;55.26;97615.78;4975638;28;20037;-41
2022/08/08 01:23:07;;;;;;;1.00;0.80;;;15.30;79.20;;;15.14;55.51;97611.59;4972077;28;20030;-42
2022/08/08 01:26:16;;;;;;;1.17;0.90;;;15.30;79.30;;;15.12;55.08;97602.84;4986908;28;20048;-42
2022/08/08 01:29:24;;;;;;;2.28;0.90;;;15.30;79.00;;;15.09;55.14;97601.19;5029116;22;20056;-48
2022/08/08 01:32:27;;;;;;;1.13;0.90;;;15.20;79.10;;;15.05;55.93;97603.16;5047073;28;20052;-46
2022/08/08 01:35:26;;;;;;;0.65;0.50;;;15.20;79.70;;;14.99;56.70;97606.13;5053766;28;20036;-46
2022/08/08 01:38:29;;;;;;;0.90;0.60;;;15.20;80.50;;;14.94;57.58;97605.50;5035820;28;20033;-50
2022/08/08 01:41:19;;;;;;;1.10;0.70;;;15.10;81.20;;;14.92;57.26;97593.25;5054753;28;20110;-47
2022/08/08 01:44:12;;;;;;;0.70;0.60;;;15.00;80.90;;;14.89;57.42;97603.09;5032210;28;20048;-50
2022/08/08 01:46:50;;;;;;;1.05;0.60;;;15.00;81.10;;;14.88;57.33;97608.47;5026457;28;20479;-48
2022/08/08 01:49:59;;;;;;;1.13;0.52;;;15.00;81.20;;;14.88;56.84;97605.81;5034799;28;20277;-48
2022/08/08 01:52:53;;;;;;;0.85;0.60;;;15.00;80.70;;;14.88;56.65;97612.00;5052815;28;20063;-49
2022/08/08 01:55:39;;;;;;;0.63;0.60;;;15.00;80.60;;;14.82;57.31;97601.69;5051349;28;20481;-47
2022/08/08 01:58:27;;;;;;;0.65;0.65;;;15.00;81.20;;;14.82;57.49;97616.75;5045161;28;20169;-49
2022/08/08 02:01:37;;;;;;;1.15;0.70;;;15.00;81.30;;;14.80;56.83;97613.31;5032164;28;20042;-47
2022/08/08 02:04:37;;;;;;;1.35;0.77;;;15.00;81.00;;;14.79;57.27;97611.63;5049245;28;20477;-48
2022/08/08 02:07:16;;;;;;;0.80;0.55;;;14.90;81.10;;;14.75;57.67;97604.72;5053866;28;20150;-50
2022/08/08 02:10:26;;;;;;;0.88;0.60;;;14.90;81.60;;;14.69;57.95;97604.09;5042425;28;20286;-50
2022/08/08 02:13:01;;;;;;;1.00;0.80;;;14.80;81.70;;;14.66;58.17;97608.69;5052710;28;20040;-45
2022/08/08 02:16:17;;;;;;;0.90;0.70;;;14.80;81.90;;;14.58;59.34;97598.47;5052506;28;20043;-48
2022/08/08 02:19:09;;;;;;;0.93;0.70;;;14.70;82.70;;;14.57;59.25;97593.19;5056673;28;20060;-49
2022/08/08 02:25:15;;;;;;;1.13;0.60;;;14.70;83.40;;;14.49;60.60;97591.78;5024835;28;20079;-48
2022/08/08 02:28:08;;;;;;;1.13;0.60;;;14.60;83.90;;;14.48;60.47;97591.84;5045376;28;20510;-46
2022/08/08 02:30:42;;;;;;;1.45;0.70;;;14.60;84.00;;;14.47;59.71;97591.00;5025809;28;20032;-50
2022/08/08 02:34:06;;;;;;;0.90;0.73;;;14.60;83.40;;;14.47;60.14;97588.34;5054571;28;20052;-50
2022/08/08 02:37:01;;;;;;;1.05;0.70;;;14.60;83.50;;;14.45;60.97;97594.69;5046652;28;20032;-47
2022/08/08 02:40:04;;;;;;;0.93;0.70;;;14.60;84.30;;;14.42;62.69;97590.38;5044644;28;20040;-47
2022/08/08 02:43:11;;;;;;;0.88;0.80;;;14.60;85.60;;;14.36;62.93;97595.13;5044123;28;20088;-49
2022/08/08 02:46:08;;;;;;;0.63;0.63;;;14.50;85.90;;;14.32;63.00;97581.16;5045818;28;20040;-50
2022/08/08 02:49:22;;;;;;;0.82;0.70;;;14.50;86.00;;;14.29;63.13;97589.25;5039644;28;20152;-50
2022/08/08 02:52:06;;;;;;;0.80;0.70;;;14.50;86.20;;;14.26;64.14;97598.22;5052526;28;20392;-49
2022/08/08 02:55:30;;;;;;;1.60;0.80;;;14.40;86.60;;;14.20;66.90;97595.03;5051288;28;20047;-49
2022/08/08 02:58:56;;;;;;;2.90;0.65;;;14.40;88.80;;;14.04;65.11;97579.00;5046313;28;20089;-49
2022/08/08 03:02:24;;;;;;;1.35;0.70;;;14.30;87.80;;;14.11;63.86;97593.66;5025315;28;20064;-48
2022/08/08 03:05:30;;;;;;;0.70;0.70;;;14.30;86.90;;;14.09;63.05;97599.03;4996837;28;20524;-46
2022/08/08 03:08:45;;;;;;;1.05;0.70;;;14.30;86.20;;;14.06;63.47;97593.88;5049827;28;20119;-48
2022/08/08 03:11:47;;;;;;;1.80;0.63;;;14.20;86.50;;;14.04;63.34;97593.09;5055707;28;20466;-51
2022/08/08 03:14:15;;;;;;;0.93;0.80;;;14.20;86.50;;;14.04;63.07;97587.78;5030182;28;20033;-51
2022/08/08 03:17:07;;;;;;;1.95;0.90;;;14.20;86.50;;;14.06;62.85;97606.28;5056455;28;20025;-48
2022/08/08 03:20:04;;;;;;;0.52;0.52;;;14.20;86.50;;;14.06;62.79;97604.47;5051071;28;20146;-48
2022/08/08 03:22:30;;;;;;;1.27;0.80;;;14.20;86.40;;;14.06;62.57;97604.47;5048171;28;20352;-48
2022/08/08 03:25:00;;;;;;;0.98;0.65;;;14.20;86.10;;;13.96;62.82;97595.25;5051426;28;20056;-48
2022/08/08 03:27:37;;;;;;;1.83;0.73;;;14.20;86.40;;;14.07;62.51;97615.97;5033660;28;20524;-50
2022/08/08 03:30:12;;;;;;;0.80;0.80;;;14.20;86.30;;;14.06;63.50;97616.91;5052592;28;20048;-49
2022/08/08 03:35:25;;;;;;;0.75;0.60;;;14.20;87.70;;;13.99;64.90;97615.47;5051483;28;20047;-48
2022/08/08 03:37:52;;;;;;;0.95;0.80;;;14.20;88.20;;;13.97;66.11;97618.19;5036382;28;20041;-47
2022/08/08 03:40:23;;;;;;;1.45;0.82;;;14.10;88.80;;;13.93;67.00;97621.91;5055050;28;20043;-50
2022/08/08 03:42:49;;;;;;;1.58;0.80;;;14.10;89.60;;;13.89;68.17;97623.84;5050635;28;20765;-47
2022/08/08 03:45:20;;;;;;;1.08;0.85;;;14.10;90.20;;;13.88;69.40;97615.97;5052760;28;20047;-49
2022/08/08 03:48:07;;;;;;;1.00;0.80;;;14.00;90.60;;;13.86;69.50;97624.00;5053785;28;20937;-50
2022/08/08 03:50:35;;;;;;;2.30;0.95;;;14.00;90.70;;;13.84;69.35;97623.22;5049147;28;20043;-49
2022/08/08 03:53:07;;;;;;;2.15;0.90;;;14.00;90.70;;;13.84;69.81;97632.97;5052603;28;20024;-50
2022/08/08 03:55:38;;;;;;;1.10;1.00;;;14.00;90.80;;;13.81;71.09;97631.28;5052140;28;20536;-50
2022/08/08 03:58:04;;;;;;;3.67;1.02;;;14.00;91.30;;;13.76;72.03;97625.34;5035692;28;20043;-50
2022/08/08 04:00:30;;;;;;;4.88;1.00;;;14.00;91.60;;;13.81;72.60;97635.75;5046306;28;20045;-49
2022/08/08 04:02:59;;;;;;;2.78;1.17;;;14.00;91.80;;;13.78;73.44;97641.19;5051519;28;20032;-50
2022/08/08 04:05:34;;;;;;;2.22;1.13;;;13.90;92.10;;;13.75;74.59;97643.03;5053894;28;20025;-48
2022/08/08 04:08:03;;;;;;;1.38;1.10;;;13.90;92.50;;;13.74;75.38;97646.63;5058812;28;20051;-48
2022/08/08 04:10:31;;;;;;;1.50;1.15;;;13.90;92.90;;;13.73;76.06;97649.34;5053309;28;20025;-50
2022/08/08 04:12:56;;;;;;;1.38;1.00;;;13.90;93.10;;;13.69;76.37;97646.00;5054066;28;20045;-49
2022/08/08 04:15:23;;;;;;;1.10;1.00;;;13.80;93.20;;;13.69;76.58;97651.28;5052842;28;20037;-46
2022/08/08 04:17:49;;;;;;;1.60;1.20;;;13.90;93.40;;;13.68;77.06;97644.25;5051554;28;20034;-49
2022/08/08 04:20:15;;;;;;;2.45;1.00;;;13.80;93.60;;;13.67;76.90;97644.31;5056321;28;20039;-50
2022/08/08 04:22:41;;;;;;;1.63;1.08;;;13.80;93.70;;;13.65;76.80;97649.69;5050155;28;20086;-49
2022/08/08 04:25:08;;;;;;;2.30;1.30;;;13.80;93.70;;;13.65;77.70;97662.94;5056399;28;20380;-48
2022/08/08 04:27:36;;;;;;;2.42;1.40;;;13.80;94.10;;;13.64;78.36;97661.22;5050684;28;20089;-48
2022/08/08 04:30:06;;;;;;;2.22;1.23;;;13.80;94.40;;;13.64;78.19;97668.31;5052168;28;20107;-50
2022/08/08 04:32:31;;;;;;;2.47;1.30;;;13.80;94.50;;;13.55;77.83;97653.69;5051285;28;20503;-50
2022/08/08 04:34:57;;;;;;;2.10;1.30;;;13.80;94.40;;;13.65;78.62;97662.09;5033608;28;20083;-48
2022/08/08 04:37:23;;;;;;;2.95;1.30;;;13.80;94.70;;;13.66;79.38;97666.47;5048047;28;20025;-47
2022/08/08 04:39:49;;;;;;;1.67;1.10;;;13.80;95.00;;;13.68;79.69;97672.56;5054402;28;20032;-49
2022/08/08 04:42:15;;;;;;;1.42;0.90;;;13.90;95.20;;;13.68;79.60;97670.75;5050117;28;20032;-51
2022/08/08 04:44:41;;;;;;;1.38;1.08;;;13.80;95.30;;;13.68;79.91;97669.91;5052971;28;20117;-49
2022/08/08 04:47:07;;;;;;;2.05;1.15;;;13.90;95.50;;;13.72;79.88;97684.72;5046782;28;20119;-48
2022/08/08 04:49:33;;;;;;;2.42;1.20;;;13.90;95.50;;;13.73;81.09;97681.16;5046915;28;20136;-50
2022/08/08 04:51:58;;;;;;;2.47;1.30;;;13.90;96.00;;;13.73;81.29;97682.00;5048216;28;20116;-47
2022/08/08 04:54:24;;;;;;;3.47;1.40;;;13.90;96.20;;;13.75;80.73;97690.75;5053444;28;20032;-50
2022/08/08 04:56:51;;;;;;;2.08;1.20;;;13.90;96.10;;;13.68;80.47;97659.31;5053658;28;20481;-51
2022/08/08 04:59:16;;;;;;;2.83;1.30;;;14.00;96.00;;;13.86;80.47;97690.28;5051014;28;20071;-46
2022/08/08 05:01:42;;;;;;;3.28;1.13;;;14.00;96.20;;;13.93;79.01;97694.38;5055842;28;20812;-49
2022/08/08 05:04:08;;;;;;;3.15;1.13;;;14.10;95.80;;;14.01;78.58;97696.66;5051497;28;20269;-49
2022/08/08 05:06:34;;;;;;;1.90;1.30;;;14.20;95.70;;;14.02;77.59;97693.09;5057043;28;20029;-49
2022/08/08 05:08:59;;;;;;;4.22;1.42;;;14.30;95.30;;;14.14;77.49;97704.94;5048721;28;20122;-49
2022/08/08 05:11:25;;;;;;;1.75;1.20;;;14.40;95.30;;;14.20;77.53;97699.31;5055157;28;20036;-49
2022/08/08 05:13:52;;;;;;;1.77;1.10;;;14.40;95.40;;;14.29;77.13;97701.53;5054252;28;20056;-49
2022/08/08 05:16:17;;;;;;;1.85;1.20;;;14.50;95.30;;;14.39;76.60;97701.97;5046828;28;20043;-48
2022/08/08 05:18:43;;;;;;;2.38;1.38;;;14.60;95.10;;;14.54;76.30;97699.53;5054899;28;20045;-48
2022/08/08 05:21:09;;;;;;;2.58;1.40;;;14.70;95.10;;;14.66;76.04;97689.19;5056596;28;20437;-48
2022/08/08 05:23:35;;;;;;;2.38;1.58;;;14.90;95.00;;;14.83;75.36;97700.78;5056220;28;20226;-49
2022/08/08 05:26:02;;;;;;;1.55;1.17;;;15.00;94.80;;;14.88;75.25;97681.03;5056880;28;20041;-49
2022/08/08 05:28:28;;;;;;;1.58;1.17;;;15.20;94.80;;;15.09;74.84;97696.81;5056725;28;20021;-48
2022/08/08 05:30:54;;;;;;;1.52;0.90;;;15.30;94.70;;;15.19;74.88;97705.19;5044945;28;20028;-47
2022/08/08 05:33:19;;;;;;;2.30;1.42;;;15.40;94.70;;;15.33;74.60;97707.16;5052126;28;20044;-48
2022/08/08 05:35:46;;;;;;;3.10;1.33;;;15.50;94.60;;;15.42;74.45;97712.84;5033197;28;20037;-48
2022/08/08 05:38:17;;;;;;;3.30;1.60;;;15.60;94.60;;;15.51;73.44;97700.03;5048015;28;20396;-50
2022/08/08 05:40:51;;;;;;;3.58;1.65;;;15.70;94.40;;;15.69;72.58;97709.69;5048971;28;20032;-48
2022/08/08 05:43:24;;;;;;;3.58;1.48;;;15.90;94.00;;;15.85;71.36;97704.44;5049354;28;20353;-47
2022/08/08 05:45:52;;;;;;;1.90;1.25;;;16.00;93.70;;;15.98;70.10;97705.50;5037404;28;20403;-48
2022/08/08 05:48:18;;;;;;;2.55;1.40;;;16.20;93.30;;;16.11;69.91;97704.84;5026709;28;20040;-46
2022/08/08 05:50:44;;;;;;;2.53;1.42;;;16.30;93.20;;;16.25;69.85;97712.94;5053448;28;20539;-46
2022/08/08 05:53:10;;;;;;;3.10;1.60;;;16.40;93.10;;;16.33;69.56;97715.16;5039472;28;20535;-50
2022/08/08 05:55:35;;;;;;;4.55;1.60;;;16.50;93.00;;;16.48;69.82;97722.31;5054597;28;20063;-47
2022/08/08 05:58:02;;;;;;;3.13;1.75;;;16.70;93.10;;;16.58;69.62;97725.28;5033100;28;20040;-47
2022/08/08 06:00:32;;;;;;;4.57;1.92;;;16.80;93.10;;;16.67;68.52;97729.25;5017662;28;20095;-48
2022/08/08 06:03:09;;;;;;;4.07;2.10;;;16.90;92.80;;;16.76;68.32;97726.06;5051271;28;20056;-47
2022/08/08 06:05:45;;;;;;;2.95;1.83;;;17.00;92.60;;;16.88;66.68;97727.22;5042598;28;20067;-48
2022/08/08 06:08:13;;;;;;;3.95;1.83;;;17.00;92.20;;;16.93;66.28;97719.81;5031316;28;20332;-48
2022/08/08 06:10:41;;;;;;;2.65;1.88;;;17.10;92.00;;;17.07;66.18;97730.53;5049566;28;20079;-50
2022/08/08 06:13:07;;;;;;;3.70;1.88;;;17.30;92.00;;;17.19;65.60;97742.28;5051206;28;20028;-47
2022/08/08 06:15:36;;;;;;;3.05;1.50;;;17.40;91.80;;;17.31;65.93;97736.22;5056098;28;20055;-46
2022/08/08 06:18:03;;;;;;;3.22;1.50;;;17.50;91.80;;;17.36;65.94;97727.97;5051643;28;20048;-50
2022/08/08 06:20:29;;;;;;;3.30;2.03;;;17.60;91.90;;;17.51;65.46;97743.03;5050750;28;20597;-45
2022/08/08 06:22:55;;;;;;;6.03;2.00;;;17.70;91.80;;;17.63;64.05;97735.28;5058656;28;20032;-46
2022/08/08 06:25:20;;;;;;;4.75;2.00;;;17.80;91.50;;;17.72;63.92;97735.56;5058945;28;20034;-49
2022/08/08 06:27:55;;;;;;;2.35;1.45;;;17.90;91.20;;;17.86;63.62;97739.25;5047892;28;20030;-48
2022/08/08 06:30:21;;;;;;;5.32;2.08;;;18.00;91.20;;;17.96;63.54;97737.72;5036468;28;20036;-46
2022/08/08 06:32:51;;;;;;;7.53;1.90;;;18.10;91.20;;;18.11;63.03;97742.13;5047295;28;20036;-46
2022/08/08 06:35:17;;;;;;;3.15;1.58;;;18.30;91.00;;;18.25;62.57;97753.72;5051494;28;20266;-48
2022/08/08 06:38:01;;;;;;;3.28;1.75;;;18.40;90.80;;;18.37;61.57;97744.09;5051700;28;20039;-45
2022/08/08 06:40:30;;;;;;;2.80;1.60;;;18.50;90.50;;;18.54;61.10;97754.59;5053717;28;20036;-47
2022/08/08 06:43:06;;;;;;;2.92;1.48;;;18.70;90.40;;;18.67;60.67;97762.66;5051302;28;20036;-47
2022/08/08 06:45:33;;;;;;;1.90;1.40;;;18.80;90.20;;;18.75;60.27;97754.16;5050998;28;20068;-48
2022/08/08 06:48:00;;;;;;;1.48;1.15;;;18.90;90.00;;;18.91;59.65;97762.06;5036705;28;20591;-46
2022/08/08 06:50:27;;;;;;;3.22;1.67;;;19.00;89.70;;;19.01;59.07;97757.84;5031078;28;20047;-48
2022/08/08 06:52:53;;;;;;;3.47;1.77;;;19.20;89.30;;;19.19;58.83;97763.81;5050520;28;20158;-49
2022/08/08 06:55:20;;;;;;;2.28;1.70;;;19.30;88.90;;;19.32;58.58;97759.34;5055539;28;20085;-46
2022/08/08 06:57:46;;;;;;;1.90;1.48;;;19.40;88.70;;;19.48;57.83;97755.66;5034492;28;20036;-49
2022/08/08 07:00:12;;;;;;;4.55;2.10;;;19.60;88.50;;;19.63;57.48;97771.53;5049960;28;20032;-49
2022/08/08 07:02:46;;;;;;;2.70;1.90;;;19.70;87.80;;;19.80;57.22;97764.19;5047072;28;20056;-49
2022/08/08 07:05:18;;;;;;;3.85;1.67;;;19.90;87.70;;;19.95;56.40;97763.09;5041639;28;20132;-49
2022/08/08 07:07:55;;;;;;;3.00;1.88;;;20.00;87.20;;;20.10;56.53;97769.25;5038018;28;20032;-51
2022/08/08 07:10:24;;;;;;;4.00;1.55;;;20.20;87.00;;;20.26;55.91;97768.16;5058327;28;20033;-51
2022/08/08 07:13:02;;;;;;;4.82;1.65;;;20.30;86.80;;;20.43;56.00;97772.31;5060360;28;20511;-49
2022/08/08 07:15:40;;;;;;;2.60;1.88;;;20.50;86.90;;;20.56;55.42;97768.63;5060123;28;20032;-49
2022/08/08 07:18:08;;;;;;;2.35;1.60;;;20.60;86.40;;;20.66;54.92;97768.03;5058135;28;20040;-49
2022/08/08 07:20:37;;;;;;;2.67;1.90;;;20.70;86.90;;;20.72;55.04;97765.75;5060883;28;20024;-47
2022/08/08 07:23:25;;;;;;;2.67;1.98;;;20.70;85.80;;;20.81;54.87;97768.72;5058037;28;20685;-45
2022/08/08 07:25:53;;;;;;;2.75;1.70;;;20.80;85.80;;;20.94;54.87;97773.09;5039389;28;20044;-49
2022/08/08 07:30:48;;;;;;;2.80;1.80;;;21.10;86.00;;;21.23;54.14;97771.88;5019868;28;20061;-46
2022/08/08 07:33:15;;;;;;;5.53;2.30;;;21.20;85.60;;;21.38;54.44;97780.66;5000976;28;20029;-43
2022/08/08 07:35:43;;;;;;;3.60;1.98;;;21.30;85.60;;;21.41;53.41;97773.22;5018964;28;20393;-43
2022/08/08 07:38:10;;;;;;;2.83;1.90;;;21.40;84.50;;;21.49;53.12;97769.97;5022822;28;20730;-43
2022/08/08 07:40:37;;;;;;;4.13;2.00;;;21.40;84.40;;;21.57;52.55;97778.31;5019313;28;20034;-43
2022/08/08 07:43:04;;;;;;;2.20;2.00;;;21.50;84.00;;;21.65;52.88;97775.03;5021763;28;20038;-42
2022/08/08 07:45:30;;;;;;;6.18;2.15;;;21.60;84.10;;;21.70;52.48;97772.88;5023044;28;20425;-42
2022/08/08 07:47:57;;;;;;;3.55;2.20;;;21.70;83.70;;;21.85;52.33;97781.56;5017727;28;20025;-44
2022/08/08 07:50:24;;;;;;;3.20;1.92;;;21.80;83.80;;;21.96;52.28;97783.41;5020567;28;20101;-44
2022/08/08 07:52:56;;;;;;;3.03;2.33;;;21.90;83.60;;;22.07;51.71;97778.94;5020843;28;20374;-45
2022/08/08 07:55:28;;;;;;;5.47;2.00;;;22.00;83.00;;;22.14;50.96;97778.44;5005462;28;20033;-45
2022/08/08 07:58:15;;;;;;;2.72;1.77;;;22.10;82.30;;;22.22;51.16;97778.72;5023900;28;20056;-44
2022/08/08 08:00:52;;;;;;;2.78;2.15;;;22.10;82.00;;;22.36;51.01;97777.63;5026908;28;20060;-43
2022/08/08 08:03:54;;;;;;;2.72;2.15;;;22.30;82.20;;;22.43;50.56;97786.94;5018970;28;20354;-47
2022/08/08 08:06:21;;;;;;;3.13;2.10;;;22.40;81.50;;;22.48;50.23;97790.09;5025408;28;20033;-45
2022/08/08 08:09:06;;;;;;;4.15;2.10;;;22.50;81.60;;;22.54;49.77;97792.31;5025616;28;20029;-44
2022/08/08 08:11:35;;;;;;;2.97;1.95;;;22.50;81.20;;;22.54;49.67;97788.75;5003417;28;20025;-44
2022/08/08 08:14:05;;;;;;;5.00;2.20;;;22.50;80.40;;;22.58;49.42;97799.16;5003411;28;20040;-44
2022/08/08 08:16:44;;;;;;;2.83;1.80;;;22.60;80.60;;;22.67;49.88;97800.25;5023634;28;20244;-43
2022/08/08 08:19:11;;;;;;;3.95;2.10;;;22.60;80.60;;;22.78;49.99;97794.88;5022471;28;20029;-44
2022/08/08 08:21:46;;;;;;;2.38;2.08;;;22.70;81.00;;;22.91;49.48;97797.41;5024449;28;20045;-43
2022/08/08 08:24:12;;;;;;;5.32;2.00;;;22.80;80.60;;;22.98;49.24;97804.00;5025157;28;20037;-43
2022/08/08 08:26:39;;;;;;;3.85;2.00;;;22.90;80.10;;;23.02;48.62;97800.09;4992938;28;20406;-46
2022/08/08 08:29:06;;;;;;;3.05;2.17;;;23.00;79.30;;;23.10;48.46;97795.97;5020437;28;20037;-47
2022/08/08 08:31:32;;;;;;;3.13;1.80;;;23.00;79.20;;;23.16;48.04;97799.00;5021455;28;20056;-44
2022/08/08 08:33:58;;;;;;;3.10;2.20;;;23.10;78.90;;;23.24;47.99;97804.59;5019858;28;20319;-43
2022/08/08 08:36:24;;;;;;;3.30;1.90;;;23.20;78.60;;;23.32;47.74;97795.91;5021605;28;20065;-43
2022/08/08 08:38:50;;;;;;;3.15;2.20;;;23.20;78.50;;;23.36;47.12;97800.03;5019609;28;20040;-47
2022/08/08 08:41:18;;;;;;;4.03;2.10;;;23.30;77.70;;;23.41;46.96;97799.66;5023447;28;20040;-43
2022/08/08 08:43:45;;;;;;;4.30;2.25;;;23.30;77.50;;;23.49;47.67;97812.47;5022507;28;20091;-47
2022/08/08 08:46:12;;;;;;;2.40;2.03;;;23.40;78.10;;;23.57;47.04;97805.47;5006656;28;20025;-43
2022/08/08 08:48:41;;;;;;;2.25;1.75;;;23.50;77.50;;;23.64;46.93;97809.34;5021085;28;20481;-45
2022/08/08 08:51:14;;;;;;;2.83;1.95;;;23.50;77.00;;;23.67;46.09;97807.38;5021049;28;20069;-43
2022/08/08 08:53:51;;;;;;;3.05;2.30;;;23.60;76.00;;;23.69;46.32;97805.41;5025080;28;20080;-43
2022/08/08 08:56:19;;;;;;;4.57;2.17;;;23.60;76.50;;;23.74;45.85;97812.16;5021965;28;20033;-45
2022/08/08 08:58:49;;;;;;;2.65;2.15;;;23.70;76.00;;;23.72;45.44;97803.31;5024002;28;20038;-44
2022/08/08 09:01:19;;;;;;;2.47;1.83;;;23.60;74.80;;;23.86;45.75;97806.72;5021337;28;20045;-45
2022/08/08 09:03:48;;;;;;;3.58;2.03;;;23.70;75.20;;;23.83;44.99;97799.75;5021335;28;20029;-46
2022/08/08 09:06:41;;;;;;;2.65;1.90;;;23.80;74.40;;;23.91;44.67;97801.81;5008859;28;20351;-44
2022/08/08 09:09:16;;;;;;;2.60;1.48;;;23.80;74.20;;;24.02;44.36;97801.75;5024290;28;20037;-43
2022/08/08 09:11:45;;;;;;;3.67;2.33;;;23.90;73.90;;;24.03;43.43;97795.38;5023324;28;20065;-43
2022/08/08 09:14:12;;;;;;;2.10;1.90;;;24.00;72.60;;;23.99;43.08;97791.22;5029125;28;20036;-43
2022/08/08 09:16:38;;;;;;;3.28;1.90;;;24.00;71.80;;;23.90;43.04;97806.31;5016781;28;20044;-45
2022/08/08 09:19:04;;;;;;;4.40;1.80;;;23.90;70.90;;;23.92;43.29;97795.41;5003868;28;20049;-47
2022/08/08 09:21:30;;;;;;;2.95;2.00;;;23.90;71.40;;;23.95;43.59;97792.47;5020663;28;20033;-46
2022/08/08 09:23:57;;;;;;;7.13;1.90;;;23.90;71.90;;;24.11;41.83;97798.25;5023019;28;20029;-47
2022/08/08 09:26:40;;;;;;;2.25;1.58;;;24.00;69.70;;;24.22;41.63;97800.03;5024515;28;20044;-43
2022/08/08 09:29:06;;;;;;;1.85;1.65;;;24.10;69.00;;;24.27;41.01;97788.84;5021788;28;20501;-45
2022/08/08 09:31:59;;;;;;;1.65;1.45;;;24.20;68.20;;;24.41;40.66;97796.59;5010655;28;20042;-44
2022/08/08 09:34:33;;;;;;;2.55;1.50;;;24.30;68.30;;;24.49;40.97;97799.44;5006089;28;20150;-42
2022/08/08 09:37:08;;;;;;;3.42;1.80;;;24.40;67.70;;;24.55;40.80;97796.25;5024993;28;20022;-44
2022/08/08 09:40:02;;;;;;;2.50;1.80;;;24.50;69.00;;;24.63;40.89;97797.44;5019153;28;20054;-47
2022/08/08 09:42:34;;;;;;;4.72;1.90;;;24.50;68.00;;;24.67;39.76;97799.72;5021237;28;20042;-46
2022/08/08 09:45:09;;;;;;;1.70;1.50;;;24.60;67.60;;;24.74;39.25;97797.31;5021378;28;20035;-44
2022/08/08 09:47:42;;;;;;;1.83;1.50;;;24.70;65.50;;;24.79;37.73;97796.94;5016859;28;20128;-46
2022/08/08 09:50:14;;;;;;;1.98;1.30;;;24.70;64.50;;;24.83;38.26;97795.66;5023609;28;20124;-44
2022/08/08 09:52:42;;;;;;;;;;;24.80;64.40;;;24.91;38.16;97795.84;5021624;28;20037;-47
2022/08/08 09:55:09;;;;;;;1.58;1.45;;;24.80;63.20;;;24.99;37.33;97787.06;5010068;28;20011;-43
2022/08/08 09:57:40;;;;;;;2.85;1.65;;;24.90;62.30;;;25.09;38.12;97793.34;5018222;28;20063;-44
2022/08/08 10:00:11;;;;;;;2.28;1.58;;;25.00;63.50;;;25.08;37.68;97780.81;5010938;28;20050;-45
2022/08/08 10:02:40;;;;;;;2.20;1.40;;;25.00;62.30;;;25.17;37.44;97787.22;5013643;28;20029;-43
2022/08/08 10:05:28;;;;;;;2.13;1.60;;;25.10;62.10;;;25.30;36.77;97791.41;5011556;28;20030;-44
2022/08/08 10:07:56;;;;;;;2.13;1.40;;;25.20;61.00;;;25.28;36.75;97779.88;5006451;28;20036;-44
2022/08/08 10:10:35;;;;;;;2.53;1.45;;;25.20;60.80;;;25.37;36.71;97782.75;4992667;28;21396;-47
2022/08/08 10:13:23;;;;;;;8.27;1.80;;;25.30;61.50;;;25.46;37.00;97781.91;4993968;28;20075;-47
2022/08/08 10:15:54;;;;;;;1.70;1.60;;;25.40;61.50;;;25.54;37.21;97779.34;5005625;28;20029;-44
2022/08/08 10:18:27;;;;;;;1.45;1.35;;;25.50;61.10;;;25.62;36.64;97778.63;5010456;28;20029;-46
2022/08/08 10:21:06;;;;;;;3.47;2.20;;;25.50;60.50;;;25.59;37.87;97776.22;5006084;28;20036;-46
2022/08/08 10:23:49;;;;;;;2.35;1.45;;;25.50;62.00;;;25.58;37.29;97772.66;5004882;28;21637;-45
2022/08/08 10:26:21;;;;;;;2.33;1.48;;;25.50;61.70;;;25.49;37.02;97752.75;4998324;28;20037;-46
2022/08/08 10:29:04;;;;;;;2.17;1.88;;;25.60;61.60;;;25.62;36.88;97771.38;5013386;28;20037;-47
2022/08/08 10:34:18;;;;;;;5.00;1.90;;;25.60;60.70;;;25.57;38.23;97768.25;5018415;28;20168;-45
2022/08/08 10:36:45;;;;;;;1.88;1.67;;;25.60;62.00;;;25.55;37.53;97777.50;5009939;28;20033;-43
2022/08/08 10:39:25;;;;;;;4.85;1.90;;;25.50;61.10;;;25.56;38.00;97780.06;5007699;28;20037;-44
2022/08/08 10:42:00;;;;;;;3.17;2.00;;;25.50;62.00;;;25.58;38.06;97771.81;5011612;28;20026;-43
2022/08/08 10:44:36;;;;;;;1.80;1.58;;;25.50;62.50;;;25.65;38.54;97767.56;5009036;28;20033;-44
2022/08/08 10:47:19;;;;;;;1.95;1.83;;;25.60;62.80;;;25.65;37.61;97775.66;5005720;28;20482;-44
2022/08/08 10:49:57;;;;;;;2.17;1.80;;;25.60;61.90;;;25.51;37.70;97772.38;5012639;28;20057;-46
2022/08/08 10:52:41;;;;;;;3.90;1.60;;;25.40;62.00;;;25.50;38.06;97772.50;5010441;28;20098;-43
2022/08/08 10:55:14;;;;;;;3.20;1.90;;;25.40;62.50;;;25.57;38.10;97767.41;5014790;28;20091;-44
2022/08/08 10:57:48;;;;;;;3.30;1.95;;;25.50;62.20;;;25.74;36.14;97782.91;4996777;28;20485;-44
2022/08/08 11:00:22;;;;;;;2.25;1.65;;;25.60;60.60;;;25.79;35.86;97772.53;5012212;28;20029;-45
2022/08/08 11:02:49;;;;;;;1.70;1.50;;;25.80;59.20;;;25.91;35.64;97778.59;4999188;28;20034;-45
2022/08/08 11:05:15;;;;;;;2.88;1.70;;;25.80;58.90;;;26.13;35.66;97768.50;4998198;28;20034;-44
2022/08/08 11:07:54;;;;;;;2.88;1.67;;;26.00;59.10;;;26.34;35.17;97769.16;5006450;28;20030;-43
2022/08/08 11:10:22;;;;;;;2.33;1.75;;;26.30;58.40;;;26.55;34.87;97768.94;5000023;28;20025;-47
2022/08/08 11:13:00;;;;;;;2.72;1.63;;;26.50;57.60;;;26.63;34.08;97766.41;5003652;28;20103;-44
2022/08/08 11:15:28;;;;;;;1.67;1.33;;;26.70;57.00;;;26.83;34.47;97764.44;5004530;28;20628;-45
2022/08/08 11:17:55;;;;;;;3.55;1.70;;;26.90;57.30;;;26.91;33.67;97760.13;5007745;28;20033;-46